sensor_id;sensor_type;location;lat;lon;timestamp;pressure;altitude;pressure_sealevel;temperature;humidity
72570;BME280;60594;50.204;8.844;2022-11-15T00:01:29;99707.81;;;10.02;89.90
72570;BME280;60594;50.204;8.844;2022-11-15T00:04:14;99701.28;;;9.86;90.02
72570;BME280;60594;50.204;8.844;2022-11-15T00:06:59;99699.78;;;9.93;90.69
72570;BME280;60594;50.204;8.844;2022-11-15T00:09:44;99705.78;;;9.85;90.47
72570;BME280;60594;50.204;8.844;2022-11-15T00:12:30;99707.97;;;9.80;90.65
72570;BME280;60594;50.204;8.844;2022-11-15T00:15:15;99710.97;;;9.87;90.15
72570;BME280;60594;50.204;8.844;2022-11-15T00:18:00;99707.63;;;9.94;90.02
72570;BME280;60594;50.204;8.844;2022-11-15T00:20:45;99706.94;;;9.92;89.86
72570;BME280;60594;50.204;8.844;2022-11-15T00:23:30;99700.63;;;9.93;89.70
72570;BME280;60594;50.204;8.844;2022-11-15T00:26:15;99699.25;;;9.99;89.17
72570;BME280;60594;50.204;8.844;2022-11-15T00:29:00;99704.66;;;10.08;88.15
72570;BME280;60594;50.204;8.844;2022-11-15T00:31:45;99708.81;;;10.01;88.63
72570;BME280;60594;50.204;8.844;2022-11-15T00:34:32;99710.09;;;9.86;88.87
72570;BME280;60594;50.204;8.844;2022-11-15T00:37:17;99703.69;;;9.68;89.48
72570;BME280;60594;50.204;8.844;2022-11-15T00:40:03;99705.94;;;9.52;90.54
72570;BME280;60594;50.204;8.844;2022-11-15T00:43:22;99698.28;;;9.38;91.59
72570;BME280;60594;50.204;8.844;2022-11-15T00:46:10;99683.63;;;9.12;92.35
72570;BME280;60594;50.204;8.844;2022-11-15T01:32:46;99670.97;;;9.57;90.35
72570;BME280;60594;50.204;8.844;2022-11-15T01:35:31;99670.91;;;9.68;90.37
72570;BME280;60594;50.204;8.844;2022-11-15T01:38:17;99662.28;;;9.75;90.25
72570;BME280;60594;50.204;8.844;2022-11-15T01:41:03;99666.88;;;9.73;89.04
72570;BME280;60594;50.204;8.844;2022-11-15T01:47:03;99658.19;;;9.71;89.24
72570;BME280;60594;50.204;8.844;2022-11-15T01:49:56;99653.91;;;9.80;89.69
72570;BME280;60594;50.204;8.844;2022-11-15T01:52:42;99651.03;;;9.72;89.16
72570;BME280;60594;50.204;8.844;2022-11-15T01:55:28;99651.19;;;9.70;89.35
72570;BME280;60594;50.204;8.844;2022-11-15T01:58:13;99650.22;;;9.71;89.92
72570;BME280;60594;50.204;8.844;2022-11-15T02:00:58;99651.19;;;9.70;90.14
72570;BME280;60594;50.204;8.844;2022-11-15T02:03:51;99651.03;;;9.72;88.96
72570;BME280;60594;50.204;8.844;2022-11-15T02:06:41;99647.28;;;9.74;89.07
72570;BME280;60594;50.204;8.844;2022-11-15T02:09:27;99630.13;;;9.88;89.02
72570;BME280;60594;50.204;8.844;2022-11-15T02:12:15;99628.72;;;9.84;89.25
72570;BME280;60594;50.204;8.844;2022-11-15T02:15:05;99627.47;;;9.88;88.39
72570;BME280;60594;50.204;8.844;2022-11-15T02:17:58;99622.41;;;9.85;88.42
72570;BME280;60594;50.204;8.844;2022-11-15T02:21:58;99628.28;;;9.88;88.33
72570;BME280;60594;50.204;8.844;2022-11-15T02:33:35;99606.78;;;10.01;86.83
72570;BME280;60594;50.204;8.844;2022-11-15T02:39:27;99603.63;;;10.07;86.80
72570;BME280;60594;50.204;8.844;2022-11-15T02:42:33;99599.66;;;10.01;86.84
72570;BME280;60594;50.204;8.844;2022-11-15T02:45:47;99597.72;;;10.03;87.39
72570;BME280;60594;50.204;8.844;2022-11-15T02:48:35;99593.97;;;10.06;87.87
72570;BME280;60594;50.204;8.844;2022-11-15T02:51:21;99599.16;;;10.07;87.05
72570;BME280;60594;50.204;8.844;2022-11-15T02:54:06;99587.31;;;10.00;87.11
72570;BME280;60594;50.204;8.844;2022-11-15T02:56:54;99593.13;;;10.05;87.34
72570;BME280;60594;50.204;8.844;2022-11-15T02:59:55;99587.66;;;10.07;87.47
72570;BME280;60594;50.204;8.844;2022-11-15T03:03:08;99581.34;;;10.08;87.93
72570;BME280;60594;50.204;8.844;2022-11-15T03:09:13;99573.38;;;10.08;87.53
72570;BME280;60594;50.204;8.844;2022-11-15T03:15:43;99587.44;;;10.19;86.29
72570;BME280;60594;50.204;8.844;2022-11-15T03:18:41;99587.28;;;10.21;86.47
72570;BME280;60594;50.204;8.844;2022-11-15T03:21:32;99580.72;;;10.25;85.58
72570;BME280;60594;50.204;8.844;2022-11-15T03:24:20;99579.56;;;10.18;86.23
72570;BME280;60594;50.204;8.844;2022-11-15T03:27:07;99564.91;;;10.03;86.56
72570;BME280;60594;50.204;8.844;2022-11-15T03:29:59;99568.28;;;10.05;86.35
72570;BME280;60594;50.204;8.844;2022-11-15T03:32:49;99571.34;;;10.00;85.95
72570;BME280;60594;50.204;8.844;2022-11-15T03:35:40;99578.16;;;9.84;86.61
72570;BME280;60594;50.204;8.844;2022-11-15T03:38:30;99582.53;;;9.64;87.21
72570;BME280;60594;50.204;8.844;2022-11-15T03:41:24;99581.69;;;9.64;87.36
72570;BME280;60594;50.204;8.844;2022-11-15T03:44:31;99585.75;;;9.68;86.99
72570;BME280;60594;50.204;8.844;2022-11-15T03:47:36;99590.94;;;9.69;87.34
72570;BME280;60594;50.204;8.844;2022-11-15T03:50:24;99597.47;;;9.86;86.42
72570;BME280;60594;50.204;8.844;2022-11-15T03:53:10;99586.88;;;9.65;87.38
72570;BME280;60594;50.204;8.844;2022-11-15T03:55:56;99594.59;;;9.68;87.47
72570;BME280;60594;50.204;8.844;2022-11-15T03:58:41;99590.41;;;9.45;88.59
72570;BME280;60594;50.204;8.844;2022-11-15T04:01:26;99588.88;;;9.22;89.38
72570;BME280;60594;50.204;8.844;2022-11-15T04:04:13;99588.00;;;9.01;90.73
72570;BME280;60594;50.204;8.844;2022-11-15T04:06:58;99595.50;;;8.96;91.19
72570;BME280;60594;50.204;8.844;2022-11-15T04:09:43;99593.56;;;8.98;91.05
72570;BME280;60594;50.204;8.844;2022-11-15T04:12:47;99598.56;;;9.12;90.66
72570;BME280;60594;50.204;8.844;2022-11-15T04:15:33;99595.00;;;9.23;90.06
72570;BME280;60594;50.204;8.844;2022-11-15T04:18:18;99595.84;;;9.03;90.87
72570;BME280;60594;50.204;8.844;2022-11-15T04:21:03;99602.75;;;8.94;92.68
72570;BME280;60594;50.204;8.844;2022-11-15T04:24:11;99596.41;;;8.86;93.51
72570;BME280;60594;50.204;8.844;2022-11-15T04:27:00;99596.72;;;8.92;93.96
72570;BME280;60594;50.204;8.844;2022-11-15T04:29:45;99585.66;;;9.08;93.41
72570;BME280;60594;50.204;8.844;2022-11-15T04:32:30;99582.69;;;9.01;93.07
72570;BME280;60594;50.204;8.844;2022-11-15T04:35:15;99584.38;;;9.02;92.72
72570;BME280;60594;50.204;8.844;2022-11-15T04:38:01;99572.13;;;9.11;93.41
72570;BME280;60594;50.204;8.844;2022-11-15T04:40:47;99563.22;;;9.01;92.45
72570;BME280;60594;50.204;8.844;2022-11-15T04:43:32;99571.69;;;9.06;92.19
72570;BME280;60594;50.204;8.844;2022-11-15T04:46:18;99562.97;;;9.24;92.78
72570;BME280;60594;50.204;8.844;2022-11-15T04:49:03;99574.47;;;9.25;91.26
72570;BME280;60594;50.204;8.844;2022-11-15T04:51:48;99569.66;;;9.19;91.12
72570;BME280;60594;50.204;8.844;2022-11-15T04:54:33;99559.56;;;9.33;90.79
72570;BME280;60594;50.204;8.844;2022-11-15T04:57:18;99559.88;;;9.40;90.13
72570;BME280;60594;50.204;8.844;2022-11-15T05:00:06;99560.69;;;9.40;89.80
72570;BME280;60594;50.204;8.844;2022-11-15T05:02:51;99561.66;;;9.39;89.94
72570;BME280;60594;50.204;8.844;2022-11-15T05:05:57;99561.09;;;9.36;90.31
72570;BME280;60594;50.204;8.844;2022-11-15T05:08:42;99561.66;;;9.39;90.03
72570;BME280;60594;50.204;8.844;2022-11-15T05:11:27;99562.97;;;9.45;90.24
72570;BME280;60594;50.204;8.844;2022-11-15T05:14:12;99553.53;;;9.61;90.37
72570;BME280;60594;50.204;8.844;2022-11-15T05:16:58;99556.91;;;9.63;89.24
72570;BME280;60594;50.204;8.844;2022-11-15T05:19:43;99554.84;;;9.76;89.40
72570;BME280;60594;50.204;8.844;2022-11-15T05:22:29;99554.03;;;9.76;89.02
72570;BME280;60594;50.204;8.844;2022-11-15T05:25:15;99549.66;;;9.75;88.14
72570;BME280;60594;50.204;8.844;2022-11-15T05:28:01;99556.19;;;9.61;88.89
72570;BME280;60594;50.204;8.844;2022-11-15T05:30:46;99561.38;;;9.63;88.45
72570;BME280;60594;50.204;8.844;2022-11-15T05:33:33;99552.75;;;9.70;88.90
72570;BME280;60594;50.204;8.844;2022-11-15T05:39:10;99543.06;;;9.69;87.94
72570;BME280;60594;50.204;8.844;2022-11-15T05:42:00;99534.13;;;9.70;88.26
72570;BME280;60594;50.204;8.844;2022-11-15T05:44:48;99530.13;;;9.85;87.99
72570;BME280;60594;50.204;8.844;2022-11-15T05:47:34;99535.31;;;9.87;88.87
72570;BME280;60594;50.204;8.844;2022-11-15T05:50:22;99524.41;;;9.99;88.41
72570;BME280;60594;50.204;8.844;2022-11-15T05:53:09;99515.13;;;9.94;87.91
72570;BME280;60594;50.204;8.844;2022-11-15T05:55:56;99519.53;;;10.04;87.49
72570;BME280;60594;50.204;8.844;2022-11-15T05:58:42;99516.25;;;9.91;87.08
72570;BME280;60594;50.204;8.844;2022-11-15T06:01:28;99528.28;;;9.86;87.07
72570;BME280;60594;50.204;8.844;2022-11-15T06:04:13;99524.34;;;9.80;87.55
72570;BME280;60594;50.204;8.844;2022-11-15T06:06:59;99515.31;;;9.62;87.43
72570;BME280;60594;50.204;8.844;2022-11-15T06:09:44;99518.47;;;9.47;88.84
72570;BME280;60594;50.204;8.844;2022-11-15T06:12:29;99525.59;;;9.46;88.82
72570;BME280;60594;50.204;8.844;2022-11-15T06:15:14;99524.00;;;9.34;89.20
72570;BME280;60594;50.204;8.844;2022-11-15T06:17:59;99522.50;;;9.41;89.21
72570;BME280;60594;50.204;8.844;2022-11-15T06:20:45;99531.41;;;9.61;88.81
72570;BME280;60594;50.204;8.844;2022-11-15T06:23:34;99533.22;;;9.60;88.61
72570;BME280;60594;50.204;8.844;2022-11-15T06:26:19;99535.03;;;9.60;88.29
72570;BME280;60594;50.204;8.844;2022-11-15T06:29:06;99530.41;;;9.52;88.06
72570;BME280;60594;50.204;8.844;2022-11-15T06:31:51;99533.66;;;9.65;88.36
72570;BME280;60594;50.204;8.844;2022-11-15T06:34:36;99528.31;;;9.56;88.24
72570;BME280;60594;50.204;8.844;2022-11-15T06:37:21;99533.22;;;9.60;88.45
72570;BME280;60594;50.204;8.844;2022-11-15T06:40:08;99526.97;;;9.71;88.75
72570;BME280;60594;50.204;8.844;2022-11-15T06:42:58;99528.84;;;9.80;88.33
72570;BME280;60594;50.204;8.844;2022-11-15T06:45:43;99538.38;;;9.82;88.36
72570;BME280;60594;50.204;8.844;2022-11-15T06:48:29;99544.78;;;9.70;88.31
72570;BME280;60594;50.204;8.844;2022-11-15T06:51:15;99543.97;;;9.89;88.26
72570;BME280;60594;50.204;8.844;2022-11-15T06:54:00;99547.66;;;9.97;87.66
72570;BME280;60594;50.204;8.844;2022-11-15T06:56:45;99547.41;;;10.00;87.91
72570;BME280;60594;50.204;8.844;2022-11-15T06:59:30;99542.78;;;10.02;88.16
72570;BME280;60594;50.204;8.844;2022-11-15T07:02:16;99550.06;;;10.00;87.21
72570;BME280;60594;50.204;8.844;2022-11-15T07:05:01;99550.19;;;9.99;87.94
72570;BME280;60594;50.204;8.844;2022-11-15T07:07:51;99540.97;;;10.03;87.50
72570;BME280;60594;50.204;8.844;2022-11-15T07:10:37;99531.91;;;10.15;87.80
72570;BME280;60594;50.204;8.844;2022-11-15T07:13:24;99546.63;;;10.19;86.71
72570;BME280;60594;50.204;8.844;2022-11-15T07:16:10;99534.44;;;10.16;87.46
72570;BME280;60594;50.204;8.844;2022-11-15T07:18:56;99526.59;;;10.24;87.70
72570;BME280;60594;50.204;8.844;2022-11-15T07:21:41;99542.88;;;10.31;87.35
72570;BME280;60594;50.204;8.844;2022-11-15T07:24:27;99544.13;;;10.36;87.93
72570;BME280;60594;50.204;8.844;2022-11-15T07:27:12;99543.16;;;10.28;88.17
72570;BME280;60594;50.204;8.844;2022-11-15T07:29:57;99553.84;;;10.38;88.63
72570;BME280;60594;50.204;8.844;2022-11-15T07:32:43;99560.56;;;10.51;87.26
72570;BME280;60594;50.204;8.844;2022-11-15T07:35:28;99562.00;;;10.55;86.35
72570;BME280;60594;50.204;8.844;2022-11-15T07:38:13;99561.72;;;10.58;85.54
72570;BME280;60594;50.204;8.844;2022-11-15T07:41:02;99561.13;;;10.55;86.14
72570;BME280;60594;50.204;8.844;2022-11-15T07:43:51;99561.72;;;10.58;85.20
72570;BME280;60594;50.204;8.844;2022-11-15T07:46:36;99550.72;;;10.42;86.62
72570;BME280;60594;50.204;8.844;2022-11-15T07:49:21;99552.28;;;10.35;87.18
72570;BME280;60594;50.204;8.844;2022-11-15T07:52:06;99553.34;;;10.13;87.63
72570;BME280;60594;50.204;8.844;2022-11-15T07:54:51;99557.41;;;10.17;87.98
72570;BME280;60594;50.204;8.844;2022-11-15T07:57:36;99551.84;;;10.30;88.59
72570;BME280;60594;50.204;8.844;2022-11-15T08:00:21;99551.72;;;10.51;87.25
72570;BME280;60594;50.204;8.844;2022-11-15T08:03:12;99558.47;;;10.45;87.84
72570;BME280;60594;50.204;8.844;2022-11-15T08:05:57;99557.06;;;10.51;87.75
72570;BME280;60594;50.204;8.844;2022-11-15T08:08:42;99559.75;;;10.60;87.41
72570;BME280;60594;50.204;8.844;2022-11-15T08:11:27;99541.09;;;10.70;86.20
72570;BME280;60594;50.204;8.844;2022-11-15T08:14:13;99539.84;;;10.74;87.16
72570;BME280;60594;50.204;8.844;2022-11-15T08:16:58;99536.34;;;10.83;86.02
72570;BME280;60594;50.204;8.844;2022-11-15T08:19:43;99531.41;;;10.88;86.44
72570;BME280;60594;50.204;8.844;2022-11-15T08:22:28;99540.81;;;10.92;86.10
72570;BME280;60594;50.204;8.844;2022-11-15T08:25:14;99534.94;;;10.88;85.94
72570;BME280;60594;50.204;8.844;2022-11-15T08:28:02;99525.69;;;10.83;85.97
72570;BME280;60594;50.204;8.844;2022-11-15T08:30:47;99534.38;;;10.85;87.04
72570;BME280;60594;50.204;8.844;2022-11-15T08:33:32;99529.19;;;10.83;86.43
72570;BME280;60594;50.204;8.844;2022-11-15T08:36:18;99532.00;;;10.91;87.35
72570;BME280;60594;50.204;8.844;2022-11-15T08:39:03;99525.94;;;10.99;85.96
72570;BME280;60594;50.204;8.844;2022-11-15T08:41:50;99539.25;;;11.08;87.35
72570;BME280;60594;50.204;8.844;2022-11-15T08:44:35;99534.94;;;10.69;86.31
72570;BME280;60594;50.204;8.844;2022-11-15T08:47:19;99537.16;;;10.64;87.90
72570;BME280;60594;50.204;8.844;2022-11-15T08:50:05;99529.06;;;10.85;88.26
72570;BME280;60594;50.204;8.844;2022-11-15T08:52:50;99536.59;;;11.08;87.21
72570;BME280;60594;50.204;8.844;2022-11-15T08:55:36;99533.38;;;10.95;87.77
72570;BME280;60594;50.204;8.844;2022-11-15T08:58:22;99540.81;;;11.11;86.76
72570;BME280;60594;50.204;8.844;2022-11-15T09:01:15;99528.88;;;11.15;86.95
72570;BME280;60594;50.204;8.844;2022-11-15T09:04:00;99529.69;;;11.15;87.58
72570;BME280;60594;50.204;8.844;2022-11-15T09:06:45;99532.09;;;11.18;86.71
72570;BME280;60594;50.204;8.844;2022-11-15T09:09:30;99531.06;;;11.29;86.56
72570;BME280;60594;50.204;8.844;2022-11-15T09:12:15;99528.94;;;11.42;83.78
72570;BME280;60594;50.204;8.844;2022-11-15T09:15:01;99526.06;;;11.26;86.55
72570;BME280;60594;50.204;8.844;2022-11-15T09:17:46;99530.22;;;11.38;86.51
72570;BME280;60594;50.204;8.844;2022-11-15T09:20:31;99528.81;;;11.43;84.13
72570;BME280;60594;50.204;8.844;2022-11-15T09:23:16;99521.28;;;11.20;86.51
72570;BME280;60594;50.204;8.844;2022-11-15T09:26:03;99523.69;;;11.04;87.61
72570;BME280;60594;50.204;8.844;2022-11-15T09:28:49;99529.03;;;10.94;87.61
72570;BME280;60594;50.204;8.844;2022-11-15T09:31:34;99514.31;;;11.00;87.08
72570;BME280;60594;50.204;8.844;2022-11-15T09:34:20;99523.66;;;11.23;86.25
72570;BME280;60594;50.204;8.844;2022-11-15T09:37:05;99526.28;;;11.42;85.48
72570;BME280;60594;50.204;8.844;2022-11-15T09:39:50;99520.72;;;11.26;85.23
72570;BME280;60594;50.204;8.844;2022-11-15T09:45:40;99517.91;;;12.00;83.51
72570;BME280;60594;50.204;8.844;2022-11-15T09:48:55;99512.16;;;12.67;78.98
72570;BME280;60594;50.204;8.844;2022-11-15T09:51:39;99518.78;;;12.80;78.02
72570;BME280;60594;50.204;8.844;2022-11-15T09:54:25;99511.06;;;12.95;78.67
72570;BME280;60594;50.204;8.844;2022-11-15T09:59:53;99504.88;;;12.42;79.85
72570;BME280;60594;50.204;8.844;2022-11-15T10:04:58;99502.19;;;12.24;82.78
72570;BME280;60594;50.204;8.844;2022-11-15T10:07:55;99500.81;;;12.20;81.54
72570;BME280;60594;50.204;8.844;2022-11-15T10:12:57;99492.44;;;12.06;83.01
72570;BME280;60594;50.204;8.844;2022-11-15T10:15:25;99477.03;;;12.00;82.02
72570;BME280;60594;50.204;8.844;2022-11-15T10:19:09;99482.66;;;11.97;81.82
72570;BME280;60594;50.204;8.844;2022-11-15T10:21:20;99471.97;;;11.79;83.27
72570;BME280;60594;50.204;8.844;2022-11-15T10:23:48;99475.53;;;11.88;83.09
72570;BME280;60594;50.204;8.844;2022-11-15T10:26:16;99462.91;;;11.90;83.85
72570;BME280;60594;50.204;8.844;2022-11-15T10:28:43;99457.69;;;11.88;83.70
72570;BME280;60594;50.204;8.844;2022-11-15T10:31:25;99457.50;;;11.99;84.63
72570;BME280;60594;50.204;8.844;2022-11-15T10:34:15;99460.94;;;11.92;82.80
72570;BME280;60594;50.204;8.844;2022-11-15T10:36:46;99457.75;;;11.79;83.65
72570;BME280;60594;50.204;8.844;2022-11-15T10:39:13;99454.56;;;11.75;84.53
72570;BME280;60594;50.204;8.844;2022-11-15T10:41:42;99458.34;;;11.73;84.70
72570;BME280;60594;50.204;8.844;2022-11-15T10:44:44;99442.53;;;11.89;84.96
72570;BME280;60594;50.204;8.844;2022-11-15T10:50:07;99446.59;;;12.28;85.05
72570;BME280;60594;50.204;8.844;2022-11-15T10:52:35;99448.41;;;12.10;84.40
72570;BME280;60594;50.204;8.844;2022-11-15T10:57:38;99432.13;;;12.30;85.73
72570;BME280;60594;50.204;8.844;2022-11-15T11:00:26;99438.13;;;12.50;85.09
72570;BME280;60594;50.204;8.844;2022-11-15T11:05:32;99430.81;;;12.17;84.01
72570;BME280;60594;50.204;8.844;2022-11-15T11:10:38;99426.81;;;12.21;84.18
72570;BME280;60594;50.204;8.844;2022-11-15T11:13:21;99416.22;;;12.11;84.82
72570;BME280;60594;50.204;8.844;2022-11-15T11:16:09;99415.00;;;12.06;84.73
72570;BME280;60594;50.204;8.844;2022-11-15T11:21:13;99407.19;;;11.95;84.78
72570;BME280;60594;50.204;8.844;2022-11-15T11:24:08;99405.69;;;11.92;84.88
72570;BME280;60594;50.204;8.844;2022-11-15T11:26:56;99405.69;;;11.92;84.50
72570;BME280;60594;50.204;8.844;2022-11-15T11:35:23;99392.19;;;12.11;84.17
72570;BME280;60594;50.204;8.844;2022-11-15T11:43:46;99371.81;;;12.45;83.34
72570;BME280;60594;50.204;8.844;2022-11-15T11:46:29;99373.34;;;12.73;83.33
72570;BME280;60594;50.204;8.844;2022-11-15T11:49:15;99372.97;;;12.68;82.54
72570;BME280;60594;50.204;8.844;2022-11-15T11:51:47;99369.59;;;12.66;82.39
72570;BME280;60594;50.204;8.844;2022-11-15T11:54:38;99359.09;;;12.90;84.66
72570;BME280;60594;50.204;8.844;2022-11-15T11:57:55;99352.41;;;13.20;82.25
72570;BME280;60594;50.204;8.844;2022-11-15T12:00:26;99353.69;;;13.08;80.23
72570;BME280;60594;50.204;8.844;2022-11-15T12:03:19;99352.22;;;13.13;81.26
72570;BME280;60594;50.204;8.844;2022-11-15T12:05:54;99344.47;;;13.02;80.96
72570;BME280;60594;50.204;8.844;2022-11-15T12:08:27;99347.72;;;12.96;81.73
72570;BME280;60594;50.204;8.844;2022-11-15T12:11:02;99337.88;;;12.97;80.86
72570;BME280;60594;50.204;8.844;2022-11-15T12:13:31;99333.00;;;12.92;82.19
72570;BME280;60594;50.204;8.844;2022-11-15T12:16:16;99329.94;;;13.05;82.75
72570;BME280;60594;50.204;8.844;2022-11-15T12:18:53;99326.69;;;12.93;81.77
72570;BME280;60594;50.204;8.844;2022-11-15T12:21:36;99324.38;;;12.98;83.65
72570;BME280;60594;50.204;8.844;2022-11-15T12:26:44;99312.91;;;13.06;83.93
72570;BME280;60594;50.204;8.844;2022-11-15T12:29:52;99316.81;;;13.19;83.13
72570;BME280;60594;50.204;8.844;2022-11-15T12:32:34;99312.84;;;12.98;81.80
72570;BME280;60594;50.204;8.844;2022-11-15T12:35:05;99308.38;;;13.06;81.14
72570;BME280;60594;50.204;8.844;2022-11-15T12:40:17;99293.53;;;13.20;83.00
72570;BME280;60594;50.204;8.844;2022-11-15T12:45:43;99288.84;;;13.14;81.09
72570;BME280;60594;50.204;8.844;2022-11-15T12:51:03;99285.81;;;13.09;83.26
72570;BME280;60594;50.204;8.844;2022-11-15T12:53:31;99285.72;;;12.93;81.87
72570;BME280;60594;50.204;8.844;2022-11-15T12:58:54;99291.22;;;12.91;83.14
72570;BME280;60594;50.204;8.844;2022-11-15T13:04:22;99275.34;;;13.23;82.70
72570;BME280;60594;50.204;8.844;2022-11-15T13:12:47;99270.66;;;13.33;83.66
72570;BME280;60594;50.204;8.844;2022-11-15T13:22:45;99256.13;;;12.94;84.00
72570;BME280;60594;50.204;8.844;2022-11-15T13:30:50;99254.56;;;13.09;82.96
72570;BME280;60594;50.204;8.844;2022-11-15T13:33:24;99245.84;;;13.07;83.81
72570;BME280;60594;50.204;8.844;2022-11-15T13:35:56;99246.09;;;12.96;82.94
72570;BME280;60594;50.204;8.844;2022-11-15T13:40:50;99246.81;;;12.98;84.08
72570;BME280;60594;50.204;8.844;2022-11-15T13:43:27;99238.16;;;13.04;83.31
72570;BME280;60594;50.204;8.844;2022-11-15T13:46:15;99230.00;;;13.14;84.95
72570;BME280;60594;50.204;8.844;2022-11-15T13:48:45;99223.31;;;13.18;82.93
72570;BME280;60594;50.204;8.844;2022-11-15T13:51:17;99232.00;;;13.20;83.88
72570;BME280;60594;50.204;8.844;2022-11-15T13:53:50;99222.78;;;13.14;84.71
72570;BME280;60594;50.204;8.844;2022-11-15T13:56:19;99219.09;;;13.07;84.46
72570;BME280;60594;50.204;8.844;2022-11-15T13:58:47;99218.25;;;12.99;84.39
72570;BME280;60594;50.204;8.844;2022-11-15T14:01:17;99218.53;;;12.96;84.86
72570;BME280;60594;50.204;8.844;2022-11-15T14:03:55;99218.69;;;12.94;84.81
72570;BME280;60594;50.204;8.844;2022-11-15T14:06:25;99219.53;;;12.95;85.09
72570;BME280;60594;50.204;8.844;2022-11-15T14:11:30;99206.41;;;13.09;84.88
72570;BME280;60594;50.204;8.844;2022-11-15T14:16:43;99189.50;;;13.09;84.47
72570;BME280;60594;50.204;8.844;2022-11-15T14:19:13;99183.69;;;13.29;84.69
72570;BME280;60594;50.204;8.844;2022-11-15T14:22:18;99187.59;;;13.43;84.71
72570;BME280;60594;50.204;8.844;2022-11-15T14:25:15;99187.25;;;13.54;85.34
72570;BME280;60594;50.204;8.844;2022-11-15T14:27:44;99180.88;;;13.63;83.45
72570;BME280;60594;50.204;8.844;2022-11-15T14:30:18;99178.69;;;13.66;83.95
72570;BME280;60594;50.204;8.844;2022-11-15T14:32:49;99169.84;;;13.66;85.15
72570;BME280;60594;50.204;8.844;2022-11-15T14:35:19;99176.03;;;13.58;85.33
72570;BME280;60594;50.204;8.844;2022-11-15T14:37:49;99171.53;;;13.59;84.84
72570;BME280;60594;50.204;8.844;2022-11-15T14:40:21;99165.84;;;13.54;85.15
72570;BME280;60594;50.204;8.844;2022-11-15T14:42:49;99167.19;;;13.58;85.30
72570;BME280;60594;50.204;8.844;2022-11-15T14:45:19;99171.00;;;13.55;85.71
72570;BME280;60594;50.204;8.844;2022-11-15T14:47:46;99152.94;;;13.57;85.44
72570;BME280;60594;50.204;8.844;2022-11-15T14:50:15;99157.81;;;13.54;86.30
72570;BME280;60594;50.204;8.844;2022-11-15T14:52:42;99154.44;;;13.52;85.98
72570;BME280;60594;50.204;8.844;2022-11-15T14:55:16;99151.78;;;13.52;86.00
72570;BME280;60594;50.204;8.844;2022-11-15T14:57:44;99146.25;;;13.45;85.21
72570;BME280;60594;50.204;8.844;2022-11-15T15:00:12;99138.72;;;13.49;85.00
72570;BME280;60594;50.204;8.844;2022-11-15T15:02:40;99140.75;;;13.47;84.83
72570;BME280;60594;50.204;8.844;2022-11-15T15:05:19;99127.16;;;13.40;86.17
72570;BME280;60594;50.204;8.844;2022-11-15T15:07:46;99116.13;;;13.35;86.72
72570;BME280;60594;50.204;8.844;2022-11-15T15:10:15;99117.81;;;13.36;87.48
72570;BME280;60594;50.204;8.844;2022-11-15T15:12:42;99113.28;;;13.37;87.41
72570;BME280;60594;50.204;8.844;2022-11-15T15:15:15;99109.28;;;13.33;87.91
72570;BME280;60594;50.204;8.844;2022-11-15T15:17:41;99103.25;;;13.23;88.27
72570;BME280;60594;50.204;8.844;2022-11-15T15:20:09;99111.75;;;13.18;88.14
72570;BME280;60594;50.204;8.844;2022-11-15T15:22:36;99100.56;;;13.15;88.19
72570;BME280;60594;50.204;8.844;2022-11-15T15:25:19;99087.53;;;13.04;87.96
72570;BME280;60594;50.204;8.844;2022-11-15T15:27:46;99091.50;;;12.92;88.00
72570;BME280;60594;50.204;8.844;2022-11-15T15:30:13;99084.63;;;12.89;86.76
72570;BME280;60594;50.204;8.844;2022-11-15T15:32:39;99075.44;;;12.84;87.83
72570;BME280;60594;50.204;8.844;2022-11-15T15:35:05;99072.25;;;12.80;87.35
72570;BME280;60594;50.204;8.844;2022-11-15T15:37:32;99069.41;;;12.74;87.47
72570;BME280;60594;50.204;8.844;2022-11-15T15:39:59;99067.38;;;12.68;87.33
72570;BME280;60594;50.204;8.844;2022-11-15T15:42:26;99068.38;;;12.67;86.33
72570;BME280;60594;50.204;8.844;2022-11-15T15:44:52;99055.47;;;12.54;86.13
72570;BME280;60594;50.204;8.844;2022-11-15T15:47:20;99063.66;;;12.61;86.69
72570;BME280;60594;50.204;8.844;2022-11-15T15:49:47;99071.84;;;12.59;86.38
72570;BME280;60594;50.204;8.844;2022-11-15T15:52:13;99064.84;;;12.58;86.26
72570;BME280;60594;50.204;8.844;2022-11-15T15:54:40;99060.66;;;12.56;85.99
72570;BME280;60594;50.204;8.844;2022-11-15T15:57:07;99068.84;;;12.54;86.58
72570;BME280;60594;50.204;8.844;2022-11-15T15:59:34;99061.81;;;12.53;86.71
72570;BME280;60594;50.204;8.844;2022-11-15T16:02:01;99049.63;;;12.51;86.17
72570;BME280;60594;50.204;8.844;2022-11-15T16:04:27;99049.97;;;12.48;86.33
72570;BME280;60594;50.204;8.844;2022-11-15T16:07:00;99046.28;;;12.49;84.98
72570;BME280;60594;50.204;8.844;2022-11-15T16:09:27;99044.94;;;12.45;84.67
72570;BME280;60594;50.204;8.844;2022-11-15T16:12:12;99038.75;;;12.44;85.02
72570;BME280;60594;50.204;8.844;2022-11-15T16:14:38;99035.56;;;12.41;84.42
72570;BME280;60594;50.204;8.844;2022-11-15T16:17:05;99030.38;;;12.31;83.82
72570;BME280;60594;50.204;8.844;2022-11-15T16:19:32;99029.53;;;12.39;84.55
72570;BME280;60594;50.204;8.844;2022-11-15T16:21:58;99013.72;;;12.45;84.43
72570;BME280;60594;50.204;8.844;2022-11-15T16:24:24;99024.56;;;12.44;84.42
72570;BME280;60594;50.204;8.844;2022-11-15T16:26:51;99025.72;;;12.41;84.91
72570;BME280;60594;50.204;8.844;2022-11-15T16:29:18;99019.88;;;12.46;85.16
72570;BME280;60594;50.204;8.844;2022-11-15T16:31:44;99015.06;;;12.49;84.40
72570;BME280;60594;50.204;8.844;2022-11-15T16:34:10;99012.16;;;12.35;83.73
72570;BME280;60594;50.204;8.844;2022-11-15T16:36:37;98994.13;;;12.29;85.04
72570;BME280;60594;50.204;8.844;2022-11-15T16:39:03;99005.84;;;12.36;84.52
72570;BME280;60594;50.204;8.844;2022-11-15T16:41:30;99004.50;;;12.40;83.86
72570;BME280;60594;50.204;8.844;2022-11-15T16:43:57;99006.50;;;12.38;83.63
72570;BME280;60594;50.204;8.844;2022-11-15T16:46:25;99010.19;;;12.37;83.49
72570;BME280;60594;50.204;8.844;2022-11-15T16:48:53;99012.38;;;12.41;83.66